Terminal Aerodrome Forecast
Issued by NWS

Home | Current Version | Previous Version | Text Only | Print | Product List | Glossary On
Versions: 1 2 3 4 5 6 7 8 9 10 11 12 13 14 15 16 17 18
000
FTUS41 KILN 302100 AAA
TAFLUK
TAF AMD
KLUK 302104Z 3021/3118 21010KT P6SM -SHRA BKN070 OVC200
      TEMPO 3021/3023 4SM -TSRA BKN050CB
     FM302300 21005KT 5SM -SHRA BR BKN050 OVC090
     FM310300 20005KT 4SM -SHRA BR OVC015
     FM311300 20006KT P6SM -SHRA OVC018
     FM311700 19008KT P6SM -SHRA VCTS BKN025CB OVC150=

USA.gov is the U.S. government's official web portal to all federal, state and local government web resources and services.